Vohburg — V2OW7 — position and weather

sailwx.info

Track history (hours):
 
Tides and Currents Weather Stations Pressure Air Temp Water Temp Dewpoint Dewpoint Depression Visibility Wind Speed Wind Dir Waves Ship Positions

Vohburg

Last reported at 2015-Jul-29 11:34 UTC. Time now 2015-Jul-30 06:13 UTC.
Position N 59°14' E 021°50'.

Length 140 m; draft 6.8 m.

Type: Cargo ship. MMSI: 305773000.

Date/timePositionNaut miles runAvg speedWind from/ knotsBaromVisibWave heightAir tempDewpointWater temp
2015-Jul-29 11:34N 59°14' E 021°50'1110.7
2015-Jul-29 10:33N 59°21' E 022°06'1110.8
2015-Jul-29 09:33N 59°27' E 022°23'1111.1
2015-Jul-29 08:33N 59°32' E 022°42'1111.5
2015-Jul-29 07:34N 59°35' E 023°04'1111.3
2015-Jul-29 06:33N 59°39' E 023°26'1212.4
2015-Jul-29 05:33N 59°42' E 023°49'1813.5
2015-Jul-29 04:12N 59°47' E 024°24'913.4
2015-Jul-29 03:33N 59°49' E 024°41'2813.6
2015-Jul-29 01:29N 59°54' E 025°36'1213.5
2015-Jul-29 00:34N 59°57' E 026°00'1313.4
2015-Jul-28 23:34N 60°00' E 026°26'1313.2
2015-Jul-28 22:34N 59°60' E 026°53'8511.9
2015-Jul-28 15:25N 60°00' E 029°43'0 0.0
2015-Jul-28 05:18N 60°00' E 029°43'1 2.0
2015-Jul-28 04:33N 59°60' E 029°40'1110.9
2015-Jul-28 03:32N 60°02' E 029°18'7312.2
2015-Jul-27 21:33N 59°59' E 026°52'1212.5
2015-Jul-27 20:33N 59°58' E 026°27'51 3.0
2015-Jul-27 03:27N 59°48' E 024°48'2613.5
2015-Jul-27 01:32N 59°40' E 023°59'1514.4
2015-Jul-27 00:30N 59°35' E 023°31'264 6.6
2015-Jul-25 08:29N 56°27' E 017°41'6816.8
2015-Jul-25 04:27N 55°49' E 016°01'1517.1
2015-Jul-25 03:34N 55°41' E 015°37'1717.2
2015-Jul-25 02:34N 55°33' E 015°11'1717.4
2015-Jul-25 01:34N 55°25' E 014°43'1717.2
2015-Jul-25 00:34N 55°12' E 014°22'1717.0
2015-Jul-24 23:34N 55°01' E 014°01'1717.1
2015-Jul-24 22:34N 54°55' E 013°33'1717.1
2015-Jul-24 21:34N 54°49' E 013°05'1716.8
2015-Jul-24 20:34N 54°43' E 012°38'1616.4
2015-Jul-24 19:33N 54°32' E 012°16'1515.4
2015-Jul-24 18:33N 54°23' E 011°55'1716.8
2015-Jul-24 17:33N 54°14' E 011°30'1716.6
2015-Jul-24 16:33N 54°05' E 011°07'1212.0
2015-Jul-24 15:32N 53°57' E 010°52'4 0.4
2015-Jul-24 05:28N 53°54' E 010°46'4 4.9
2015-Jul-24 04:33N 53°57' E 010°52'1010.2
2015-Jul-24 03:32N 54°05' E 011°04'8 8.4
2015-Jul-24 02:33N 54°11' E 011°14'8 7.6
2015-Jul-24 01:33N 54°17' E 011°21'7 7.4
2015-Jul-24 00:33N 54°24' E 011°23'8 7.6
2015-Jul-23 23:33N 54°31' E 011°20'8 8.0
2015-Jul-23 22:33N 54°36' E 011°08'8 8.0
2015-Jul-23 21:32N 54°40' E 010°56'8 7.8
2015-Jul-23 20:33N 54°47' E 010°52'10 9.3
2015-Jul-23 19:32N 54°57' E 010°56'10 9.7
2015-Jul-23 18:33N 55°06' E 011°02'9 9.3
2015-Jul-23 17:33N 55°15' E 011°05'12110.8
2015-Jul-23 06:25N 57°15' E 010°43'1012.1
2015-Jul-23 05:33N 57°25' E 010°43'1212.1
2015-Jul-23 04:33N 57°37' E 010°44'1010.2
2015-Jul-23 03:33N 57°47' E 010°39'1414.2
2015-Jul-23 02:33N 57°44' E 010°13'172 9.3
2015-Jul-22 08:06N 55°42' E 006°32'9915.2
2015-Jul-22 01:34N 54°13' E 005°15'1515.3
2015-Jul-22 00:34N 53°59' E 005°05'1515.4
2015-Jul-21 23:34N 53°44' E 004°55'1615.7
2015-Jul-21 22:34N 53°30' E 004°45'1616.3
2015-Jul-21 21:34N 53°15' E 004°34'1616.4
2015-Jul-21 20:34N 53°01' E 004°21'1616.1
2015-Jul-21 19:33N 52°47' E 004°07'1616.2
2015-Jul-21 18:34N 52°35' E 003°50'1616.4
2015-Jul-21 17:33N 52°23' E 003°31'1716.6
2015-Jul-21 16:33N 52°10' E 003°13'1616.0
2015-Jul-21 15:34N 51°56' E 003°00'1615.6
2015-Jul-21 14:34N 51°41' E 002°52'1515.0
2015-Jul-21 13:34N 51°27' E 002°46'1110.6
2015-Jul-21 12:33N 51°24' E 003°02'7 6.7
2015-Jul-21 11:33N 51°21' E 003°11'0 0.0
2015-Jul-21 10:33N 51°21' E 003°11'0 0.0
2015-Jul-21 09:29N 51°21' E 003°11'0 0.0
2015-Jul-21 08:32N 51°21' E 003°11'0 0.0
2015-Jul-21 06:29N 51°21' E 003°11'0 0.0
2015-Jul-21 05:26N 51°21' E 003°11'0 0.0
2015-Jul-21 04:26N 51°21' E 003°11'0 0.0
2015-Jul-21 02:25N 51°21' E 003°11'4 4.5
2015-Jul-21 01:34N 51°25' E 003°13'1414.3
2015-Jul-21 00:33N 51°26' E 003°36'1010.3
2015-Jul-20 23:33N 51°20' E 003°49'0 0.4
2015-Jul-20 22:34N 51°19' E 003°49'2 2.2
2015-Jul-20 21:34N 51°17' E 003°50'6 6.0
2015-Jul-20 20:34N 51°11' E 003°48'5 4.8
2015-Jul-20 19:33N 51°07' E 003°45'0 0.0
2015-Jul-20 18:32N 51°07' E 003°45'0 0.0
2015-Jul-20 17:31N 51°07' E 003°45'0 0.0
2015-Jul-20 16:23N 51°07' E 003°45'0 0.0
2015-Jul-20 15:32N 51°07' E 003°45'0 0.0
2015-Jul-20 14:32N 51°07' E 003°45'0 0.0
2015-Jul-20 13:25N 51°07' E 003°45'0 0.0
2015-Jul-20 12:32N 51°07' E 003°45'0 0.1
2015-Jul-20 11:34N 51°07' E 003°45'6 6.4
2015-Jul-20 10:33N 51°13' E 003°48'7 6.5
2015-Jul-20 09:33N 51°20' E 003°49'5 4.5
2015-Jul-20 08:33N 51°23' E 003°44'1010.1
2015-Jul-20 07:33N 51°28' E 003°30'2813.9
2015-Jul-20 05:33N 51°51' E 003°05'1211.7
2015-Jul-20 04:30N 52°02' E 002°54'1112.0
2015-Jul-20 03:33N 52°12' E 002°45'1413.6
2015-Jul-20 02:33N 52°23' E 002°33'1414.3
2015-Jul-20 01:33N 52°35' E 002°21'1515.0
2015-Jul-20 00:33N 52°48' E 002°08'1615.8
2015-Jul-19 23:34N 52°58' E 001°48'1716.7
2015-Jul-19 22:34N 53°09' E 001°27'3816.8
2015-Jul-19 20:17N 53°39' E 000°48'1216.8
2015-Jul-19 19:33N 53°49' E 000°35'1717.1
2015-Jul-19 18:33N 54°02' E 000°16'1817.7
2015-Jul-19 17:33N 54°15' W 000°03'1818.0
2015-Jul-19 16:33N 54°29' W 000°24'1817.3
2015-Jul-19 15:33N 54°38' W 000°50'1111.1
2015-Jul-19 14:31N 54°36' W 001°09'0 0.2
2015-Jul-19 13:28N 54°36' W 001°09'0 0.0
2015-Jul-19 12:31N 54°36' W 001°09'  
Track history (hours):
 
Tides and Currents Weather Stations Pressure Air Temp Water Temp Dewpoint Dewpoint Depression Visibility Wind Speed Wind Dir Waves Ship Positions

Vohburg

Last reported at 2015-Jul-29 11:34 UTC. Time now 2015-Jul-30 06:13 UTC.
Position N 59°14' E 021°50'.

Length 140 m; draft 6.8 m.

Type: Cargo ship. MMSI: 305773000.

Date/timePositionNaut miles runAvg speedWind from/ knotsBaromVisibWave heightAir tempDewpointWater temp
2015-Jul-29 11:34N 59°14' E 021°50'1110.7
2015-Jul-29 10:33N 59°21' E 022°06'1110.8
2015-Jul-29 09:33N 59°27' E 022°23'1111.1
2015-Jul-29 08:33N 59°32' E 022°42'1111.5
2015-Jul-29 07:34N 59°35' E 023°04'1111.3
2015-Jul-29 06:33N 59°39' E 023°26'1212.4
2015-Jul-29 05:33N 59°42' E 023°49'1813.5
2015-Jul-29 04:12N 59°47' E 024°24'913.4
2015-Jul-29 03:33N 59°49' E 024°41'2813.6
2015-Jul-29 01:29N 59°54' E 025°36'1213.5
2015-Jul-29 00:34N 59°57' E 026°00'1313.4
2015-Jul-28 23:34N 60°00' E 026°26'1313.2
2015-Jul-28 22:34N 59°60' E 026°53'8511.9
2015-Jul-28 15:25N 60°00' E 029°43'0 0.0
2015-Jul-28 05:18N 60°00' E 029°43'1 2.0
2015-Jul-28 04:33N 59°60' E 029°40'1110.9
2015-Jul-28 03:32N 60°02' E 029°18'7312.2
2015-Jul-27 21:33N 59°59' E 026°52'1212.5
2015-Jul-27 20:33N 59°58' E 026°27'51 3.0
2015-Jul-27 03:27N 59°48' E 024°48'2613.5
2015-Jul-27 01:32N 59°40' E 023°59'1514.4
2015-Jul-27 00:30N 59°35' E 023°31'264 6.6
2015-Jul-25 08:29N 56°27' E 017°41'6816.8
2015-Jul-25 04:27N 55°49' E 016°01'1517.1
2015-Jul-25 03:34N 55°41' E 015°37'1717.2
2015-Jul-25 02:34N 55°33' E 015°11'1717.4
2015-Jul-25 01:34N 55°25' E 014°43'1717.2
2015-Jul-25 00:34N 55°12' E 014°22'1717.0
2015-Jul-24 23:34N 55°01' E 014°01'1717.1
2015-Jul-24 22:34N 54°55' E 013°33'1717.1
2015-Jul-24 21:34N 54°49' E 013°05'1716.8
2015-Jul-24 20:34N 54°43' E 012°38'1616.4
2015-Jul-24 19:33N 54°32' E 012°16'1515.4
2015-Jul-24 18:33N 54°23' E 011°55'1716.8
2015-Jul-24 17:33N 54°14' E 011°30'1716.6
2015-Jul-24 16:33N 54°05' E 011°07'1212.0
2015-Jul-24 15:32N 53°57' E 010°52'4 0.4
2015-Jul-24 05:28N 53°54' E 010°46'4 4.9
2015-Jul-24 04:33N 53°57' E 010°52'1010.2
2015-Jul-24 03:32N 54°05' E 011°04'8 8.4
2015-Jul-24 02:33N 54°11' E 011°14'8 7.6
2015-Jul-24 01:33N 54°17' E 011°21'7 7.4
2015-Jul-24 00:33N 54°24' E 011°23'8 7.6
2015-Jul-23 23:33N 54°31' E 011°20'8 8.0
2015-Jul-23 22:33N 54°36' E 011°08'8 8.0
2015-Jul-23 21:32N 54°40' E 010°56'8 7.8
2015-Jul-23 20:33N 54°47' E 010°52'10 9.3
2015-Jul-23 19:32N 54°57' E 010°56'10 9.7
2015-Jul-23 18:33N 55°06' E 011°02'9 9.3
2015-Jul-23 17:33N 55°15' E 011°05'12110.8
2015-Jul-23 06:25N 57°15' E 010°43'1012.1
2015-Jul-23 05:33N 57°25' E 010°43'1212.1
2015-Jul-23 04:33N 57°37' E 010°44'1010.2
2015-Jul-23 03:33N 57°47' E 010°39'1414.2
2015-Jul-23 02:33N 57°44' E 010°13'172 9.3
2015-Jul-22 08:06N 55°42' E 006°32'9915.2
2015-Jul-22 01:34N 54°13' E 005°15'1515.3
2015-Jul-22 00:34N 53°59' E 005°05'1515.4
2015-Jul-21 23:34N 53°44' E 004°55'1615.7
2015-Jul-21 22:34N 53°30' E 004°45'1616.3
2015-Jul-21 21:34N 53°15' E 004°34'1616.4
2015-Jul-21 20:34N 53°01' E 004°21'1616.1
2015-Jul-21 19:33N 52°47' E 004°07'1616.2
2015-Jul-21 18:34N 52°35' E 003°50'1616.4
2015-Jul-21 17:33N 52°23' E 003°31'1716.6
2015-Jul-21 16:33N 52°10' E 003°13'1616.0
2015-Jul-21 15:34N 51°56' E 003°00'1615.6
2015-Jul-21 14:34N 51°41' E 002°52'1515.0
2015-Jul-21 13:34N 51°27' E 002°46'1110.6
2015-Jul-21 12:33N 51°24' E 003°02'7 6.7
2015-Jul-21 11:33N 51°21' E 003°11'0 0.0
2015-Jul-21 10:33N 51°21' E 003°11'0 0.0
2015-Jul-21 09:29N 51°21' E 003°11'0 0.0
2015-Jul-21 08:32N 51°21' E 003°11'0 0.0
2015-Jul-21 06:29N 51°21' E 003°11'0 0.0
2015-Jul-21 05:26N 51°21' E 003°11'0 0.0
2015-Jul-21 04:26N 51°21' E 003°11'0 0.0
2015-Jul-21 02:25N 51°21' E 003°11'4 4.5
2015-Jul-21 01:34N 51°25' E 003°13'1414.3
2015-Jul-21 00:33N 51°26' E 003°36'1010.3
2015-Jul-20 23:33N 51°20' E 003°49'0 0.4
2015-Jul-20 22:34N 51°19' E 003°49'2 2.2
2015-Jul-20 21:34N 51°17' E 003°50'6 6.0
2015-Jul-20 20:34N 51°11' E 003°48'5 4.8
2015-Jul-20 19:33N 51°07' E 003°45'0 0.0
2015-Jul-20 18:32N 51°07' E 003°45'0 0.0
2015-Jul-20 17:31N 51°07' E 003°45'0 0.0
2015-Jul-20 16:23N 51°07' E 003°45'0 0.0
2015-Jul-20 15:32N 51°07' E 003°45'0 0.0
2015-Jul-20 14:32N 51°07' E 003°45'0 0.0
2015-Jul-20 13:25N 51°07' E 003°45'0 0.0
2015-Jul-20 12:32N 51°07' E 003°45'0 0.1
2015-Jul-20 11:34N 51°07' E 003°45'6 6.4
2015-Jul-20 10:33N 51°13' E 003°48'7 6.5
2015-Jul-20 09:33N 51°20' E 003°49'5 4.5
2015-Jul-20 08:33N 51°23' E 003°44'1010.1
2015-Jul-20 07:33N 51°28' E 003°30'2813.9
2015-Jul-20 05:33N 51°51' E 003°05'1211.7
2015-Jul-20 04:30N 52°02' E 002°54'1112.0
2015-Jul-20 03:33N 52°12' E 002°45'1413.6
2015-Jul-20 02:33N 52°23' E 002°33'1414.3
2015-Jul-20 01:33N 52°35' E 002°21'1515.0
2015-Jul-20 00:33N 52°48' E 002°08'1615.8
2015-Jul-19 23:34N 52°58' E 001°48'1716.7
2015-Jul-19 22:34N 53°09' E 001°27'3816.8
2015-Jul-19 20:17N 53°39' E 000°48'1216.8
2015-Jul-19 19:33N 53°49' E 000°35'1717.1
2015-Jul-19 18:33N 54°02' E 000°16'1817.7
2015-Jul-19 17:33N 54°15' W 000°03'1818.0
2015-Jul-19 16:33N 54°29' W 000°24'1817.3
2015-Jul-19 15:33N 54°38' W 000°50'1111.1
2015-Jul-19 14:31N 54°36' W 001°09'0 0.2
2015-Jul-19 13:28N 54°36' W 001°09'0 0.0
2015-Jul-19 12:31N 54°36' W 001°09'  

Dump ship's entire track history